sensor_id;sensor_type;location;lat;lon;timestamp;pressure;altitude;pressure_sealevel;temperature;humidity
50672;BME280;46021;55.882;37.654;2023-05-08T00:00:21;100969.19;;;-0.36;53.75
50672;BME280;46021;55.882;37.654;2023-05-08T00:02:49;100974.31;;;-0.36;54.03
50672;BME280;46021;55.882;37.654;2023-05-08T00:05:16;100978.50;;;-0.38;54.35
50672;BME280;46021;55.882;37.654;2023-05-08T00:07:43;100974.16;;;-0.41;54.38
50672;BME280;46021;55.882;37.654;2023-05-08T00:10:11;100975.03;;;-0.40;53.29
50672;BME280;46021;55.882;37.654;2023-05-08T00:12:38;100975.09;;;-0.38;54.50
50672;BME280;46021;55.882;37.654;2023-05-08T00:15:08;100976.78;;;-0.39;54.31
50672;BME280;46021;55.882;37.654;2023-05-08T00:17:35;100977.56;;;-0.42;54.91
50672;BME280;46021;55.882;37.654;2023-05-08T00:20:03;100986.78;;;-0.47;55.02
50672;BME280;46021;55.882;37.654;2023-05-08T00:22:31;100985.72;;;-0.52;55.01
50672;BME280;46021;55.882;37.654;2023-05-08T00:24:58;100987.25;;;-0.57;54.97
50672;BME280;46021;55.882;37.654;2023-05-08T00:27:25;100983.69;;;-0.62;55.42
50672;BME280;46021;55.882;37.654;2023-05-08T00:29:52;100988.69;;;-0.65;55.00
50672;BME280;46021;55.882;37.654;2023-05-08T00:32:21;100993.69;;;-0.68;55.55
50672;BME280;46021;55.882;37.654;2023-05-08T00:34:48;100997.84;;;-0.72;55.40
50672;BME280;46021;55.882;37.654;2023-05-08T00:37:15;100997.75;;;-0.75;55.96
50672;BME280;46021;55.882;37.654;2023-05-08T00:39:43;100993.28;;;-0.81;55.86
50672;BME280;46021;55.882;37.654;2023-05-08T00:42:10;101001.88;;;-0.79;56.32
50672;BME280;46021;55.882;37.654;2023-05-08T00:44:37;100996.66;;;-0.82;55.55
50672;BME280;46021;55.882;37.654;2023-05-08T00:47:06;100995.63;;;-0.87;55.82
50672;BME280;46021;55.882;37.654;2023-05-08T00:49:35;100999.91;;;-0.86;56.54
50672;BME280;46021;55.882;37.654;2023-05-08T00:52:03;101003.31;;;-0.87;56.19
50672;BME280;46021;55.882;37.654;2023-05-08T00:54:33;100998.06;;;-0.90;56.11
50672;BME280;46021;55.882;37.654;2023-05-08T00:57:01;101003.31;;;-0.87;56.64
50672;BME280;46021;55.882;37.654;2023-05-08T00:59:29;101004.13;;;-0.88;56.12
50672;BME280;46021;55.882;37.654;2023-05-08T01:01:57;100999.72;;;-0.92;56.37
50672;BME280;46021;55.882;37.654;2023-05-08T01:04:24;101003.19;;;-0.90;55.97
50672;BME280;46021;55.882;37.654;2023-05-08T01:06:53;101000.56;;;-0.91;55.99
50672;BME280;46021;55.882;37.654;2023-05-08T01:09:21;100995.25;;;-0.98;56.03
50672;BME280;46021;55.882;37.654;2023-05-08T01:11:53;101004.72;;;-0.95;56.16
50672;BME280;46021;55.882;37.654;2023-05-08T01:14:28;101002.09;;;-0.96;56.31
50672;BME280;46021;55.882;37.654;2023-05-08T01:17:06;101005.47;;;-0.98;56.25
50672;BME280;46021;55.882;37.654;2023-05-08T01:19:57;101007.97;;;-0.99;57.13
50672;BME280;46021;55.882;37.654;2023-05-08T01:22:52;100998.50;;;-1.02;56.96
50672;BME280;46021;55.882;37.654;2023-05-08T01:25:44;101006.13;;;-1.03;57.64
50672;BME280;46021;55.882;37.654;2023-05-08T01:28:32;101009.59;;;-1.01;59.43
50672;BME280;46021;55.882;37.654;2023-05-08T01:31:11;100993.13;;;-1.09;57.40
50672;BME280;46021;55.882;37.654;2023-05-08T01:33:46;100999.16;;;-1.07;57.28
50672;BME280;46021;55.882;37.654;2023-05-08T01:36:22;101009.59;;;-1.01;57.16
50672;BME280;46021;55.882;37.654;2023-05-08T01:38:56;101018.22;;;-0.99;56.81
50672;BME280;46021;55.882;37.654;2023-05-08T01:41:26;101012.31;;;-0.96;56.83
50672;BME280;46021;55.882;37.654;2023-05-08T01:44:01;101011.59;;;-0.94;56.94
50672;BME280;46021;55.882;37.654;2023-05-08T01:46:31;101013.44;;;-0.90;57.01
50672;BME280;46021;55.882;37.654;2023-05-08T01:49:05;101021.25;;;-0.85;57.19
50672;BME280;46021;55.882;37.654;2023-05-08T01:51:38;101027.50;;;-0.79;57.28
50672;BME280;46021;55.882;37.654;2023-05-08T01:54:09;101028.53;;;-0.73;57.44
50672;BME280;46021;55.882;37.654;2023-05-08T01:56:41;101033.03;;;-0.66;57.37
50672;BME280;46021;55.882;37.654;2023-05-08T01:59:10;101031.50;;;-0.61;56.81
50672;BME280;46021;55.882;37.654;2023-05-08T02:01:40;101024.88;;;-0.56;58.32
50672;BME280;46021;55.882;37.654;2023-05-08T02:04:10;101038.72;;;-0.51;57.98
50672;BME280;46021;55.882;37.654;2023-05-08T02:06:38;101035.53;;;-0.44;57.47
50672;BME280;46021;55.882;37.654;2023-05-08T02:09:07;101034.13;;;-0.35;57.26
50672;BME280;46021;55.882;37.654;2023-05-08T02:11:37;101037.91;;;-0.24;58.14
50672;BME280;46021;55.882;37.654;2023-05-08T02:14:06;101034.78;;;-0.15;57.54
50672;BME280;46021;55.882;37.654;2023-05-08T02:16:36;101041.31;;;0.01;58.05
50672;BME280;46021;55.882;37.654;2023-05-08T02:19:03;101049.50;;;0.16;58.05
50672;BME280;46021;55.882;37.654;2023-05-08T02:21:34;101050.75;;;0.29;57.65
50672;BME280;46021;55.882;37.654;2023-05-08T02:24:03;101052.00;;;0.42;58.01
50672;BME280;46021;55.882;37.654;2023-05-08T02:26:32;101040.38;;;0.53;58.25
50672;BME280;46021;55.882;37.654;2023-05-08T02:29:01;101042.41;;;0.63;58.54
50672;BME280;46021;55.882;37.654;2023-05-08T02:31:29;101044.34;;;0.70;57.30
50672;BME280;46021;55.882;37.654;2023-05-08T02:33:57;101042.06;;;0.80;58.36
50672;BME280;46021;55.882;37.654;2023-05-08T02:36:26;101047.44;;;0.89;57.19
50672;BME280;46021;55.882;37.654;2023-05-08T02:38:59;101047.00;;;1.02;57.60
50672;BME280;46021;55.882;37.654;2023-05-08T02:41:29;101046.75;;;1.25;57.84
50672;BME280;46021;55.882;37.654;2023-05-08T02:43:58;101046.97;;;1.63;58.28
50672;BME280;46021;55.882;37.654;2023-05-08T02:46:32;101054.16;;;2.11;58.92
50672;BME280;46021;55.882;37.654;2023-05-08T02:49:06;101050.25;;;2.63;59.57
50672;BME280;46021;55.882;37.654;2023-05-08T02:51:42;101048.69;;;3.11;58.99
50672;BME280;46021;55.882;37.654;2023-05-08T02:54:17;101062.63;;;3.63;58.90
50672;BME280;46021;55.882;37.654;2023-05-08T02:56:55;101058.22;;;4.06;56.92
50672;BME280;46021;55.882;37.654;2023-05-08T02:59:29;101066.66;;;4.48;57.37
50672;BME280;46021;55.882;37.654;2023-05-08T03:01:59;101067.22;;;4.88;55.77
50672;BME280;46021;55.882;37.654;2023-05-08T03:04:33;101065.97;;;5.27;55.75
50672;BME280;46021;55.882;37.654;2023-05-08T03:07:03;101070.69;;;5.62;53.75
50672;BME280;46021;55.882;37.654;2023-05-08T03:09:38;101066.63;;;5.85;52.02
50672;BME280;46021;55.882;37.654;2023-05-08T03:12:11;101071.16;;;6.08;52.49
50672;BME280;46021;55.882;37.654;2023-05-08T03:14:44;101069.66;;;6.35;52.37
50672;BME280;46021;55.882;37.654;2023-05-08T03:17:15;101075.91;;;6.61;50.92
50672;BME280;46021;55.882;37.654;2023-05-08T03:19:46;101078.66;;;6.89;49.87
50672;BME280;46021;55.882;37.654;2023-05-08T03:22:15;101079.69;;;7.17;49.74
50672;BME280;46021;55.882;37.654;2023-05-08T03:24:47;101080.63;;;7.35;48.61
50672;BME280;46021;55.882;37.654;2023-05-08T03:27:16;101083.28;;;7.55;48.32
50672;BME280;46021;55.882;37.654;2023-05-08T03:29:45;101082.47;;;7.82;47.96
50672;BME280;46021;55.882;37.654;2023-05-08T03:32:13;101079.91;;;8.05;47.21
50672;BME280;46021;55.882;37.654;2023-05-08T03:34:41;101078.19;;;8.26;46.26
50672;BME280;46021;55.882;37.654;2023-05-08T03:37:09;101079.09;;;8.51;45.74
50672;BME280;46021;55.882;37.654;2023-05-08T03:39:37;101079.03;;;8.88;45.07
50672;BME280;46021;55.882;37.654;2023-05-08T03:42:05;101080.63;;;9.29;44.48
50672;BME280;46021;55.882;37.654;2023-05-08T03:44:33;101087.44;;;9.59;43.70
50672;BME280;46021;55.882;37.654;2023-05-08T03:47:01;101088.03;;;10.01;42.98
50672;BME280;46021;55.882;37.654;2023-05-08T03:49:30;101083.50;;;10.32;42.27
50672;BME280;46021;55.882;37.654;2023-05-08T03:51:58;101090.28;;;10.55;41.32
50672;BME280;46021;55.882;37.654;2023-05-08T03:54:25;101091.88;;;10.70;40.38
50672;BME280;46021;55.882;37.654;2023-05-08T03:56:55;101091.78;;;10.78;39.78
50672;BME280;46021;55.882;37.654;2023-05-08T03:59:39;101083.91;;;10.82;37.96
50672;BME280;46021;55.882;37.654;2023-05-08T04:02:14;101078.38;;;11.11;39.06
50672;BME280;46021;55.882;37.654;2023-05-08T04:04:46;101078.63;;;11.61;39.00
50672;BME280;46021;55.882;37.654;2023-05-08T04:07:22;101087.66;;;12.02;37.80
50672;BME280;46021;55.882;37.654;2023-05-08T04:09:57;101085.41;;;12.32;36.78
50672;BME280;46021;55.882;37.654;2023-05-08T04:12:31;101087.00;;;12.42;35.80
50672;BME280;46021;55.882;37.654;2023-05-08T04:15:06;101081.22;;;12.73;35.88
50672;BME280;46021;55.882;37.654;2023-05-08T04:17:39;101082.25;;;13.11;35.58
50672;BME280;46021;55.882;37.654;2023-05-08T04:20:12;101085.31;;;13.35;35.54
50672;BME280;46021;55.882;37.654;2023-05-08T04:22:41;101073.19;;;13.70;35.01
50672;BME280;46021;55.882;37.654;2023-05-08T04:25:10;101082.50;;;14.20;34.69
50672;BME280;46021;55.882;37.654;2023-05-08T04:27:38;101086.72;;;14.62;33.74
50672;BME280;46021;55.882;37.654;2023-05-08T04:30:09;101085.06;;;14.91;33.40
50672;BME280;46021;55.882;37.654;2023-05-08T04:32:37;101092.56;;;15.36;32.92
50672;BME280;46021;55.882;37.654;2023-05-08T04:35:05;101086.66;;;15.57;32.64
50672;BME280;46021;55.882;37.654;2023-05-08T04:37:33;101097.22;;;15.86;32.06
50672;BME280;46021;55.882;37.654;2023-05-08T04:40:02;101086.97;;;15.78;31.63
50672;BME280;46021;55.882;37.654;2023-05-08T04:42:32;101091.53;;;15.42;31.53
50672;BME280;46021;55.882;37.654;2023-05-08T04:45:03;101084.34;;;15.17;31.62
50672;BME280;46021;55.882;37.654;2023-05-08T04:47:33;101084.34;;;14.86;31.90
50672;BME280;46021;55.882;37.654;2023-05-08T04:50:01;101086.06;;;14.87;31.82
50672;BME280;46021;55.882;37.654;2023-05-08T04:52:30;101084.91;;;14.97;31.72
50672;BME280;46021;55.882;37.654;2023-05-08T04:54:57;101089.38;;;15.25;31.61
50672;BME280;46021;55.882;37.654;2023-05-08T04:57:24;101087.97;;;15.74;31.06
50672;BME280;46021;55.882;37.654;2023-05-08T04:59:51;101081.59;;;15.51;30.68
50672;BME280;46021;55.882;37.654;2023-05-08T05:02:19;101091.16;;;15.84;30.30
50672;BME280;46021;55.882;37.654;2023-05-08T05:04:48;101086.47;;;15.93;30.24
50672;BME280;46021;55.882;37.654;2023-05-08T05:07:16;101075.22;;;16.68;30.29
50672;BME280;46021;55.882;37.654;2023-05-08T05:09:43;101080.78;;;17.11;29.32
50672;BME280;46021;55.882;37.654;2023-05-08T05:12:10;101086.53;;;17.68;29.45
50672;BME280;46021;55.882;37.654;2023-05-08T05:14:37;101092.63;;;18.36;28.50
50672;BME280;46021;55.882;37.654;2023-05-08T05:17:04;101089.13;;;18.77;27.64
50672;BME280;46021;55.882;37.654;2023-05-08T05:19:31;101097.22;;;18.94;25.81
50672;BME280;46021;55.882;37.654;2023-05-08T05:22:00;101093.84;;;19.11;26.99
50672;BME280;46021;55.882;37.654;2023-05-08T05:24:28;101096.25;;;18.75;26.26
50672;BME280;46021;55.882;37.654;2023-05-08T05:26:56;101093.75;;;17.63;25.44
50672;BME280;46021;55.882;37.654;2023-05-08T05:29:25;101104.53;;;17.09;25.94
50672;BME280;46021;55.882;37.654;2023-05-08T05:31:53;101107.25;;;16.29;26.49
50672;BME280;46021;55.882;37.654;2023-05-08T05:34:20;101108.88;;;16.33;26.81
50672;BME280;46021;55.882;37.654;2023-05-08T05:36:47;101106.56;;;15.96;26.98
50672;BME280;46021;55.882;37.654;2023-05-08T05:39:16;101105.28;;;16.88;26.86
50672;BME280;46021;55.882;37.654;2023-05-08T05:41:43;101108.59;;;17.89;26.72
50672;BME280;46021;55.882;37.654;2023-05-08T05:44:11;101088.97;;;17.50;24.45
50672;BME280;46021;55.882;37.654;2023-05-08T05:46:38;101102.72;;;17.35;24.86
50672;BME280;46021;55.882;37.654;2023-05-08T05:49:06;101100.63;;;16.96;26.23
50672;BME280;46021;55.882;37.654;2023-05-08T05:51:34;101109.22;;;17.72;25.95
50672;BME280;46021;55.882;37.654;2023-05-08T05:54:05;101107.19;;;18.24;24.98
50672;BME280;46021;55.882;37.654;2023-05-08T05:56:34;101102.44;;;18.33;24.75
50672;BME280;46021;55.882;37.654;2023-05-08T05:59:02;101107.69;;;18.12;24.90
50672;BME280;46021;55.882;37.654;2023-05-08T06:01:30;101109.03;;;18.65;24.76
50672;BME280;46021;55.882;37.654;2023-05-08T06:03:57;101103.00;;;19.23;24.34
50672;BME280;46021;55.882;37.654;2023-05-08T06:06:24;101106.41;;;18.00;24.13
50672;BME280;46021;55.882;37.654;2023-05-08T06:08:52;101106.72;;;16.71;24.36
50672;BME280;46021;55.882;37.654;2023-05-08T06:11:22;101115.91;;;15.15;25.29
50672;BME280;46021;55.882;37.654;2023-05-08T06:13:50;101107.25;;;13.70;26.34
50672;BME280;46021;55.882;37.654;2023-05-08T06:16:18;101101.16;;;12.80;27.18
50672;BME280;46021;55.882;37.654;2023-05-08T06:18:48;101114.97;;;11.77;28.27
50672;BME280;46021;55.882;37.654;2023-05-08T06:21:15;101116.84;;;10.92;29.52
50672;BME280;46021;55.882;37.654;2023-05-08T06:23:42;101116.53;;;10.24;30.39
50672;BME280;46021;55.882;37.654;2023-05-08T06:26:09;101122.13;;;9.61;31.23
50672;BME280;46021;55.882;37.654;2023-05-08T06:28:36;101115.41;;;9.09;32.78
50672;BME280;46021;55.882;37.654;2023-05-08T06:31:05;101119.75;;;9.06;32.72
50672;BME280;46021;55.882;37.654;2023-05-08T06:33:32;101115.41;;;9.09;32.16
50672;BME280;46021;55.882;37.654;2023-05-08T06:35:59;101119.75;;;9.04;32.89
50672;BME280;46021;55.882;37.654;2023-05-08T06:38:26;101113.69;;;8.93;32.98
50672;BME280;46021;55.882;37.654;2023-05-08T06:40:54;101124.09;;;8.96;32.76
50672;BME280;46021;55.882;37.654;2023-05-08T06:43:21;101110.25;;;8.82;33.47
50672;BME280;46021;55.882;37.654;2023-05-08T06:45:48;101114.56;;;8.93;33.53
50672;BME280;46021;55.882;37.654;2023-05-08T06:48:19;101119.78;;;8.78;34.23
50672;BME280;46021;55.882;37.654;2023-05-08T06:50:46;101119.78;;;8.38;34.74
50672;BME280;46021;55.882;37.654;2023-05-08T06:53:14;101120.59;;;8.11;35.13
50672;BME280;46021;55.882;37.654;2023-05-08T06:55:42;101110.25;;;8.23;34.94
50672;BME280;46021;55.882;37.654;2023-05-08T06:58:09;101113.72;;;8.28;34.74
50672;BME280;46021;55.882;37.654;2023-05-08T07:00:36;101123.22;;;8.15;34.86
50672;BME280;46021;55.882;37.654;2023-05-08T07:03:04;101115.44;;;8.31;34.10
50672;BME280;46021;55.882;37.654;2023-05-08T07:05:33;101119.81;;;8.44;34.59
50672;BME280;46021;55.882;37.654;2023-05-08T07:08:00;101110.28;;;8.54;34.33
50672;BME280;46021;55.882;37.654;2023-05-08T07:10:27;101109.41;;;8.53;33.98
50672;BME280;46021;55.882;37.654;2023-05-08T07:12:54;101111.13;;;8.57;34.24
50672;BME280;46021;55.882;37.654;2023-05-08T07:15:21;101108.53;;;8.56;34.35
50672;BME280;46021;55.882;37.654;2023-05-08T07:17:48;101111.16;;;8.62;33.89
50672;BME280;46021;55.882;37.654;2023-05-08T07:20:16;101099.91;;;8.60;33.21
50672;BME280;46021;55.882;37.654;2023-05-08T07:22:44;101101.59;;;8.70;33.85
50672;BME280;46021;55.882;37.654;2023-05-08T07:25:12;101085.16;;;8.57;33.95
50672;BME280;46021;55.882;37.654;2023-05-08T07:27:39;101102.47;;;8.62;34.18
50672;BME280;46021;55.882;37.654;2023-05-08T07:30:07;101100.75;;;8.61;33.81
50672;BME280;46021;55.882;37.654;2023-05-08T07:32:35;101093.81;;;8.50;34.17
50672;BME280;46021;55.882;37.654;2023-05-08T07:35:04;101081.69;;;8.55;33.87
50672;BME280;46021;55.882;37.654;2023-05-08T07:37:33;101091.19;;;8.69;33.45
50672;BME280;46021;55.882;37.654;2023-05-08T07:40:02;101076.47;;;8.74;33.44
50672;BME280;46021;55.882;37.654;2023-05-08T07:42:30;101082.47;;;9.04;33.40
50672;BME280;46021;55.882;37.654;2023-05-08T07:44:57;101067.66;;;9.18;33.15
50672;BME280;46021;55.882;37.654;2023-05-08T07:47:24;101079.72;;;9.39;32.98
50672;BME280;46021;55.882;37.654;2023-05-08T07:49:53;101070.16;;;9.46;33.39
50672;BME280;46021;55.882;37.654;2023-05-08T07:52:20;101073.63;;;9.43;33.25
50672;BME280;46021;55.882;37.654;2023-05-08T07:54:48;101071.00;;;9.51;33.26
50672;BME280;46021;55.882;37.654;2023-05-08T07:57:16;101079.75;;;9.38;32.57
50672;BME280;46021;55.882;37.654;2023-05-08T07:59:43;101078.78;;;9.59;32.84
50672;BME280;46021;55.882;37.654;2023-05-08T08:02:10;101082.00;;;9.98;33.08
50672;BME280;46021;55.882;37.654;2023-05-08T08:04:38;101081.84;;;10.18;32.40
50672;BME280;46021;55.882;37.654;2023-05-08T08:07:05;101074.84;;;10.30;31.70
50672;BME280;46021;55.882;37.654;2023-05-08T08:09:32;101072.47;;;9.92;32.45
50672;BME280;46021;55.882;37.654;2023-05-08T08:11:59;101079.50;;;9.81;32.17
50672;BME280;46021;55.882;37.654;2023-05-08T08:14:28;101060.41;;;9.82;32.52
50672;BME280;46021;55.882;37.654;2023-05-08T08:16:55;101070.66;;;10.03;32.41
50672;BME280;46021;55.882;37.654;2023-05-08T08:19:22;101068.75;;;10.27;32.31
50672;BME280;46021;55.882;37.654;2023-05-08T08:21:49;101070.19;;;10.63;32.23
50672;BME280;46021;55.882;37.654;2023-05-08T08:24:17;101072.81;;;10.63;31.23
50672;BME280;46021;55.882;37.654;2023-05-08T08:26:44;101068.56;;;10.53;31.21
50672;BME280;46021;55.882;37.654;2023-05-08T08:29:11;101064.88;;;10.74;31.22
50672;BME280;46021;55.882;37.654;2023-05-08T08:31:40;101064.91;;;10.71;31.36
50672;BME280;46021;55.882;37.654;2023-05-08T08:34:07;101062.44;;;10.59;31.06
50672;BME280;46021;55.882;37.654;2023-05-08T08:36:34;101070.13;;;10.71;31.00
50672;BME280;46021;55.882;37.654;2023-05-08T08:39:01;101071.94;;;10.63;30.72
50672;BME280;46021;55.882;37.654;2023-05-08T08:41:29;101070.47;;;10.28;31.51
50672;BME280;46021;55.882;37.654;2023-05-08T08:43:56;101065.16;;;10.43;31.57
50672;BME280;46021;55.882;37.654;2023-05-08T08:46:25;101056.06;;;10.83;31.65
50672;BME280;46021;55.882;37.654;2023-05-08T08:48:55;101057.47;;;11.80;31.50
50672;BME280;46021;55.882;37.654;2023-05-08T08:51:25;101056.00;;;12.69;29.73
50672;BME280;46021;55.882;37.654;2023-05-08T08:54:01;101051.75;;;13.10;29.14
50672;BME280;46021;55.882;37.654;2023-05-08T08:56:29;101056.84;;;12.71;28.64
50672;BME280;46021;55.882;37.654;2023-05-08T08:58:57;101052.38;;;12.28;28.73
50672;BME280;46021;55.882;37.654;2023-05-08T09:01:26;101056.03;;;11.59;29.18
50672;BME280;46021;55.882;37.654;2023-05-08T09:03:57;101072.94;;;11.28;29.62
50672;BME280;46021;55.882;37.654;2023-05-08T09:06:25;101055.97;;;10.93;29.79
50672;BME280;46021;55.882;37.654;2023-05-08T09:08:54;101062.28;;;10.69;30.20
50672;BME280;46021;55.882;37.654;2023-05-08T09:11:22;101063.31;;;10.56;30.02
50672;BME280;46021;55.882;37.654;2023-05-08T09:13:50;101072.88;;;10.54;30.05
50672;BME280;46021;55.882;37.654;2023-05-08T09:16:17;101073.78;;;10.51;30.38
50672;BME280;46021;55.882;37.654;2023-05-08T09:18:45;101073.78;;;10.51;30.56
50672;BME280;46021;55.882;37.654;2023-05-08T09:21:14;101072.88;;;10.56;30.63
50672;BME280;46021;55.882;37.654;2023-05-08T09:23:54;101074.03;;;10.18;30.41
50672;BME280;46021;55.882;37.654;2023-05-08T09:26:26;101069.75;;;10.12;30.31
50672;BME280;46021;55.882;37.654;2023-05-08T09:29:07;101068.75;;;10.27;30.10
50672;BME280;46021;55.882;37.654;2023-05-08T09:31:35;101056.53;;;10.40;30.79
50672;BME280;46021;55.882;37.654;2023-05-08T09:34:05;101065.81;;;10.68;30.72
50672;BME280;46021;55.882;37.654;2023-05-08T09:36:33;101057.72;;;10.95;30.39
50672;BME280;46021;55.882;37.654;2023-05-08T09:39:01;101061.91;;;11.05;30.34
50672;BME280;46021;55.882;37.654;2023-05-08T09:41:28;101070.50;;;11.16;30.14
50672;BME280;46021;55.882;37.654;2023-05-08T09:44:03;101063.47;;;11.21;30.00
50672;BME280;46021;55.882;37.654;2023-05-08T09:46:32;101056.59;;;11.14;29.82
50672;BME280;46021;55.882;37.654;2023-05-08T09:49:01;101066.22;;;11.07;29.64
50672;BME280;46021;55.882;37.654;2023-05-08T09:51:29;101066.47;;;10.87;29.74
50672;BME280;46021;55.882;37.654;2023-05-08T09:53:59;101041.31;;;10.82;30.24
50672;BME280;46021;55.882;37.654;2023-05-08T09:56:35;101057.81;;;10.85;30.11
50672;BME280;46021;55.882;37.654;2023-05-08T10:01:47;101051.16;;;10.53;30.03
50672;BME280;46021;55.882;37.654;2023-05-08T10:04:15;101059.06;;;10.46;30.00
50672;BME280;46021;55.882;37.654;2023-05-08T10:06:43;101047.81;;;10.39;30.19
50672;BME280;46021;55.882;37.654;2023-05-08T10:09:13;101047.84;;;10.30;30.30
50672;BME280;46021;55.882;37.654;2023-05-08T10:11:41;101051.69;;;9.84;30.58
50672;BME280;46021;55.882;37.654;2023-05-08T10:14:17;101050.91;;;9.73;30.46
50672;BME280;46021;55.882;37.654;2023-05-08T10:16:45;101059.50;;;9.83;30.30
50672;BME280;46021;55.882;37.654;2023-05-08T10:19:15;101053.44;;;9.84;30.53
50672;BME280;46021;55.882;37.654;2023-05-08T10:21:46;101056.03;;;9.87;31.07
50672;BME280;46021;55.882;37.654;2023-05-08T10:24:16;101050.00;;;9.82;31.27
50672;BME280;46021;55.882;37.654;2023-05-08T10:26:51;101046.59;;;9.67;31.64
50672;BME280;46021;55.882;37.654;2023-05-08T10:29:29;101045.63;;;9.82;31.23
50672;BME280;46021;55.882;37.654;2023-05-08T10:31:58;101044.72;;;9.88;31.62
50672;BME280;46021;55.882;37.654;2023-05-08T10:34:27;101047.13;;;10.17;31.46
50672;BME280;46021;55.882;37.654;2023-05-08T10:36:57;101047.72;;;10.51;31.22
50672;BME280;46021;55.882;37.654;2023-05-08T10:39:27;101040.31;;;10.93;31.35
50672;BME280;46021;55.882;37.654;2023-05-08T10:41:55;101040.72;;;11.31;30.49
50672;BME280;46021;55.882;37.654;2023-05-08T10:44:23;101037.91;;;11.45;29.96
50672;BME280;46021;55.882;37.654;2023-05-08T10:46:56;101033.84;;;11.86;29.90
50672;BME280;46021;55.882;37.654;2023-05-08T10:49:34;101031.09;;;12.50;30.32
50672;BME280;46021;55.882;37.654;2023-05-08T10:52:11;101026.56;;;13.45;28.95
50672;BME280;46021;55.882;37.654;2023-05-08T10:55:05;101022.69;;;14.35;27.32
50672;BME280;46021;55.882;37.654;2023-05-08T10:57:35;101012.81;;;14.77;27.07
50672;BME280;46021;55.882;37.654;2023-05-08T11:00:02;101016.41;;;15.34;26.52
50672;BME280;46021;55.882;37.654;2023-05-08T11:02:31;101017.16;;;15.96;26.97
50672;BME280;46021;55.882;37.654;2023-05-08T11:05:13;101009.47;;;17.15;25.29
50672;BME280;46021;55.882;37.654;2023-05-08T11:07:54;100997.69;;;18.12;23.61
50672;BME280;46021;55.882;37.654;2023-05-08T11:10:29;101008.25;;;18.54;23.27
50672;BME280;46021;55.882;37.654;2023-05-08T11:12:57;101005.88;;;17.40;23.11
50672;BME280;46021;55.882;37.654;2023-05-08T11:15:35;101001.34;;;15.97;23.37
50672;BME280;46021;55.882;37.654;2023-05-08T11:18:04;101010.50;;;15.28;24.32
50672;BME280;46021;55.882;37.654;2023-05-08T11:20:38;101013.72;;;13.73;24.91
50672;BME280;46021;55.882;37.654;2023-05-08T11:23:20;101014.44;;;13.80;25.43
50672;BME280;46021;55.882;37.654;2023-05-08T11:25:57;101015.25;;;13.82;25.36
50672;BME280;46021;55.882;37.654;2023-05-08T11:28:25;101011.00;;;13.39;25.84
50672;BME280;46021;55.882;37.654;2023-05-08T11:30:53;101011.69;;;13.47;25.87
50672;BME280;46021;55.882;37.654;2023-05-08T11:33:21;101009.59;;;12.79;25.72
50672;BME280;46021;55.882;37.654;2023-05-08T11:35:54;101012.16;;;12.35;26.45
50672;BME280;46021;55.882;37.654;2023-05-08T11:38:24;101014.66;;;11.87;27.20
50672;BME280;46021;55.882;37.654;2023-05-08T11:40:57;101024.34;;;11.82;27.16
50672;BME280;46021;55.882;37.654;2023-05-08T11:46:41;101013.94;;;12.33;27.54
50672;BME280;46021;55.882;37.654;2023-05-08T11:49:12;101014.50;;;12.51;27.74
50672;BME280;46021;55.882;37.654;2023-05-08T11:51:42;101011.84;;;12.54;26.85
50672;BME280;46021;55.882;37.654;2023-05-08T11:54:12;101011.16;;;12.42;27.01
50672;BME280;46021;55.882;37.654;2023-05-08T11:56:41;101011.50;;;12.22;27.51
50672;BME280;46021;55.882;37.654;2023-05-08T11:59:08;101019.31;;;12.24;27.15
50672;BME280;46021;55.882;37.654;2023-05-08T12:01:36;101015.84;;;12.25;27.27
50672;BME280;46021;55.882;37.654;2023-05-08T12:04:04;101007.19;;;12.20;27.02
50672;BME280;46021;55.882;37.654;2023-05-08T12:06:33;101007.72;;;11.86;26.88
50672;BME280;46021;55.882;37.654;2023-05-08T12:09:01;101007.84;;;11.80;27.59
50672;BME280;46021;55.882;37.654;2023-05-08T12:11:29;101008.41;;;12.00;27.61
50672;BME280;46021;55.882;37.654;2023-05-08T12:13:58;101005.47;;;12.19;27.60
50672;BME280;46021;55.882;37.654;2023-05-08T12:16:25;101000.72;;;12.41;27.41
50672;BME280;46021;55.882;37.654;2023-05-08T12:18:55;101001.28;;;12.57;27.41
50672;BME280;46021;55.882;37.654;2023-05-08T12:21:22;101009.63;;;12.77;27.14
50672;BME280;46021;55.882;37.654;2023-05-08T12:23:50;101004.97;;;12.93;27.39
50672;BME280;46021;55.882;37.654;2023-05-08T12:26:17;100993.41;;;13.02;26.96
50672;BME280;46021;55.882;37.654;2023-05-08T12:28:44;101001.84;;;13.16;27.26
50672;BME280;46021;55.882;37.654;2023-05-08T12:31:14;100997.19;;;13.31;26.92
50672;BME280;46021;55.882;37.654;2023-05-08T12:33:41;100989.81;;;13.50;26.68
50672;BME280;46021;55.882;37.654;2023-05-08T12:36:09;100994.63;;;13.67;26.65
50672;BME280;46021;55.882;37.654;2023-05-08T12:38:36;100993.56;;;13.75;26.39
50672;BME280;46021;55.882;37.654;2023-05-08T12:41:03;100995.19;;;13.42;26.87
50672;BME280;46021;55.882;37.654;2023-05-08T12:43:33;100994.63;;;13.27;26.65
50672;BME280;46021;55.882;37.654;2023-05-08T12:46:01;100991.56;;;13.07;26.81
50672;BME280;46021;55.882;37.654;2023-05-08T12:48:30;100993.75;;;12.86;26.57
50672;BME280;46021;55.882;37.654;2023-05-08T12:51:02;100983.81;;;12.59;26.99
50672;BME280;46021;55.882;37.654;2023-05-08T12:53:31;100988.50;;;12.41;26.73
50672;BME280;46021;55.882;37.654;2023-05-08T12:56:01;100986.16;;;12.27;27.46
50672;BME280;46021;55.882;37.654;2023-05-08T12:58:30;100981.09;;;12.17;27.96
50672;BME280;46021;55.882;37.654;2023-05-08T13:01:05;100970.31;;;11.84;27.97